createdAt,value
2023-03-15T00:01:23.194Z,97638.50
2023-03-15T00:02:54.790Z,97634.91
2023-03-15T00:04:27.732Z,97637.59
2023-03-15T00:06:01.066Z,97635.34
2023-03-15T00:07:32.927Z,97644.50
2023-03-15T00:09:04.799Z,97643.69
2023-03-15T00:10:36.394Z,97648.34
2023-03-15T00:12:08.214Z,97649.69
2023-03-15T00:13:39.887Z,97661.41
2023-03-15T00:15:13.903Z,97655.78
2023-03-15T00:16:45.679Z,97661.41
2023-03-15T00:18:18.641Z,97663.91
2023-03-15T00:19:50.336Z,97667.69
2023-03-15T00:21:22.613Z,97669.38
2023-03-15T00:22:54.255Z,97675.13
2023-03-15T00:24:25.903Z,97682.41
2023-03-15T00:25:57.834Z,97687.13
2023-03-15T00:27:29.581Z,97687.47
2023-03-15T00:29:01.203Z,97694.78
2023-03-15T00:30:33.330Z,97693.44
2023-03-15T00:32:05.069Z,97707.44
2023-03-15T00:33:36.739Z,97706.88
2023-03-15T00:35:13.138Z,97705.13
2023-03-15T00:36:45.797Z,97708.25
2023-03-15T00:38:17.704Z,97717.56
2023-03-15T00:39:49.810Z,97715.53
2023-03-15T00:41:22.388Z,97730.69
2023-03-15T00:42:54.097Z,97733.53
2023-03-15T00:44:26.556Z,97732.97
2023-03-15T00:45:58.800Z,97740.22
2023-03-15T00:47:30.894Z,97748.09
2023-03-15T00:49:02.634Z,97735.28
2023-03-15T00:50:34.290Z,97740.84
2023-03-15T00:52:06.841Z,97742.84
2023-03-15T00:53:41.440Z,97745.06
2023-03-15T00:55:16.280Z,97738.81
2023-03-15T00:56:48.124Z,97739.41
2023-03-15T00:58:21.722Z,97740.91
2023-03-15T00:59:55.160Z,97739.34
2023-03-15T01:01:29.718Z,97743.97
2023-03-15T01:03:01.391Z,97747.28
2023-03-15T01:04:33.089Z,97746.19
2023-03-15T01:06:14.100Z,97751.13
2023-03-15T01:07:45.741Z,97755.25
2023-03-15T01:09:17.366Z,97754.81
2023-03-15T01:10:50.510Z,97755.75
2023-03-15T01:12:22.082Z,97756.56
2023-03-15T01:13:56.103Z,97764.44
2023-03-15T01:15:27.688Z,97762.56
2023-03-15T01:16:59.325Z,97774.06
2023-03-15T01:18:31.192Z,97777.56
2023-03-15T01:20:05.513Z,97779.56
2023-03-15T01:21:37.107Z,97780.75
2023-03-15T01:23:08.792Z,97779.09
2023-03-15T01:24:40.380Z,97783.19
2023-03-15T01:26:14.652Z,97790.25
2023-03-15T01:27:46.250Z,97787.19
2023-03-15T01:29:18.014Z,97785.31
2023-03-15T01:30:51.188Z,97791.16
2023-03-15T01:32:22.887Z,97789.16
2023-03-15T01:33:55.070Z,97798.13
2023-03-15T01:35:26.666Z,97797.91
2023-03-15T01:36:58.509Z,97801.09
2023-03-15T01:38:36.249Z,97805.78
2023-03-15T01:40:13.857Z,97802.13
2023-03-15T01:41:48.431Z,97811.19
2023-03-15T01:43:26.790Z,97813.44
2023-03-15T01:45:00.241Z,97813.34
2023-03-15T01:46:34.707Z,97814.59
2023-03-15T01:48:22.854Z,97824.13
2023-03-15T01:50:04.094Z,97828.47
2023-03-15T01:51:51.766Z,97824.81
2023-03-15T01:53:26.408Z,97818.31
2023-03-15T01:55:04.280Z,97814.94
2023-03-15T01:56:41.782Z,97822.78
2023-03-15T01:58:14.033Z,97818.19
2023-03-15T01:59:58.457Z,97815.34
2023-03-15T02:01:32.538Z,97822.63
2023-03-15T02:03:14.524Z,97822.63
2023-03-15T02:04:59.435Z,97824.03
2023-03-15T02:06:34.991Z,97824.94
2023-03-15T02:08:09.134Z,97830.69
2023-03-15T02:09:49.631Z,97834.25
2023-03-15T02:11:24.139Z,97827.53
2023-03-15T02:12:56.218Z,97830.69
2023-03-15T02:14:29.146Z,97827.75
2023-03-15T02:16:01.837Z,97829.50
2023-03-15T02:17:43.665Z,97835.94
2023-03-15T02:19:47.874Z,97833.63
2023-03-15T02:21:38.225Z,97838.16
2023-03-15T02:23:13.422Z,97841.47
2023-03-15T02:24:51.297Z,97840.38
2023-03-15T02:26:48.691Z,97847.53
2023-03-15T02:28:20.842Z,97851.41
2023-03-15T02:29:52.914Z,97856.25
2023-03-15T02:31:26.944Z,97851.88
2023-03-15T02:33:03.476Z,97855.59
2023-03-15T02:34:35.118Z,97856.97
2023-03-15T02:36:16.830Z,97856.38
2023-03-15T02:37:48.399Z,97860.72
2023-03-15T02:39:22.071Z,97858.88
2023-03-15T02:40:53.675Z,97862.34
2023-03-15T02:42:26.505Z,97866.53
2023-03-15T02:44:11.433Z,97868.88
2023-03-15T02:45:43.530Z,97876.94
2023-03-15T02:47:22.773Z,97877.75
2023-03-15T02:48:54.869Z,97881.81
2023-03-15T02:50:26.539Z,97888.78
2023-03-15T02:51:58.350Z,97884.16
2023-03-15T02:53:30.983Z,97888.66
2023-03-15T02:55:02.735Z,97889.59
2023-03-15T02:56:34.392Z,97891.28
2023-03-15T02:58:06.923Z,97903.88
2023-03-15T02:59:38.655Z,97898.63
2023-03-15T03:01:13.178Z,97897.06
2023-03-15T03:02:46.802Z,97907.81
2023-03-15T03:04:18.673Z,97912.38
2023-03-15T03:05:50.255Z,97913.69
2023-03-15T03:07:21.913Z,97908.31
2023-03-15T03:08:58.517Z,97913.06
2023-03-15T03:10:30.470Z,97909.47
2023-03-15T03:12:03.524Z,97915.75
2023-03-15T03:13:37.136Z,97918.75
2023-03-15T03:15:11.320Z,97924.75
2023-03-15T03:16:43.025Z,97924.50
2023-03-15T03:18:14.805Z,97923.50
2023-03-15T03:19:46.629Z,97933.28
2023-03-15T03:21:20.384Z,97931.84
2023-03-15T03:22:51.989Z,97937.50
2023-03-15T03:24:25.776Z,97937.50
2023-03-15T03:25:59.040Z,97942.78
2023-03-15T03:27:30.704Z,97943.81
2023-03-15T03:29:07.856Z,97944.53
2023-03-15T03:30:39.613Z,97948.44
2023-03-15T03:32:11.520Z,97951.63
2023-03-15T03:33:43.256Z,97949.97
2023-03-15T03:35:16.241Z,97953.28
2023-03-15T03:36:51.016Z,97957.53
2023-03-15T03:38:30.777Z,97956.69
2023-03-15T03:40:08.254Z,97961.84
2023-03-15T03:41:40.544Z,97963.78
2023-03-15T03:43:12.552Z,97967.53
2023-03-15T03:44:44.255Z,97974.00
2023-03-15T03:46:16.252Z,97973.41
2023-03-15T03:47:52.871Z,97978.56
2023-03-15T03:49:24.617Z,97981.75
2023-03-15T03:50:56.199Z,97975.56
2023-03-15T03:52:27.907Z,97988.34
2023-03-15T03:54:06.914Z,97979.34
2023-03-15T03:55:38.554Z,97981.53
2023-03-15T03:57:10.961Z,97980.28
2023-03-15T03:58:43.258Z,97982.03
2023-03-15T04:00:21.592Z,97992.97
2023-03-15T04:01:54.103Z,97994.59
2023-03-15T04:03:28.585Z,97994.22
2023-03-15T04:05:11.906Z,97997.56
2023-03-15T04:06:45.774Z,97999.81
2023-03-15T04:08:17.785Z,97998.81
2023-03-15T04:09:49.357Z,98004.47
2023-03-15T04:11:22.319Z,98001.91
2023-03-15T04:12:59.337Z,98002.09
2023-03-15T04:14:30.913Z,98007.78
2023-03-15T04:16:03.976Z,98005.50
2023-03-15T04:17:41.970Z,98002.28
2023-03-15T04:19:13.592Z,98004.88
2023-03-15T04:20:47.601Z,98011.69
2023-03-15T04:22:21.544Z,98016.66
2023-03-15T04:24:28.353Z,98016.00
2023-03-15T04:26:08.672Z,98016.34
2023-03-15T04:27:58.983Z,98015.81
2023-03-15T04:30:09.681Z,98014.56
2023-03-15T04:31:53.785Z,98017.22
2023-03-15T04:33:35.682Z,98020.63
2023-03-15T04:35:39.956Z,98028.53
2023-03-15T04:37:37.852Z,98025.34
2023-03-15T04:39:22.897Z,98033.78
2023-03-15T04:41:10.850Z,98035.66
2023-03-15T04:42:56.014Z,98040.72
2023-03-15T04:44:37.600Z,98033.84
2023-03-15T04:46:27.969Z,98038.25
2023-03-15T04:48:11.968Z,98050.56
2023-03-15T04:49:56.963Z,98040.31
2023-03-15T04:51:47.457Z,98043.06
2023-03-15T04:53:25.367Z,98044.31
2023-03-15T04:55:07.905Z,98043.56
2023-03-15T04:56:58.011Z,98042.13
2023-03-15T04:58:48.173Z,98040.75
2023-03-15T05:00:34.221Z,98045.38
2023-03-15T05:02:26.225Z,98045.09
2023-03-15T05:04:27.083Z,98039.34
2023-03-15T05:06:09.812Z,98041.47
2023-03-15T05:08:08.130Z,98042.59
2023-03-15T05:09:58.053Z,98039.22
2023-03-15T05:11:46.450Z,98041.78
2023-03-15T05:13:36.586Z,98047.03
2023-03-15T05:15:19.861Z,98048.75
2023-03-15T05:17:15.414Z,98046.66
2023-03-15T05:18:49.641Z,98045.75
2023-03-15T05:20:56.597Z,98043.72
2023-03-15T05:22:45.575Z,98034.53
2023-03-15T05:24:30.521Z,98041.00
2023-03-15T05:26:31.425Z,98046.16
2023-03-15T05:28:18.388Z,98050.25
2023-03-15T05:30:09.152Z,98050.38
2023-03-15T05:32:08.996Z,98063.28
2023-03-15T05:33:58.751Z,98051.91
2023-03-15T05:36:05.819Z,98059.84
2023-03-15T05:37:56.246Z,98065.25
2023-03-15T05:39:44.804Z,98070.50
2023-03-15T05:41:38.041Z,98066.88
2023-03-15T05:43:28.302Z,98056.44
2023-03-15T05:45:15.460Z,98061.22
2023-03-15T05:47:01.631Z,98062.97
2023-03-15T05:48:51.694Z,98063.81
2023-03-15T05:50:55.518Z,98063.63
2023-03-15T05:52:36.433Z,98067.72
2023-03-15T05:54:26.858Z,98071.63
2023-03-15T05:56:08.238Z,98070.00
2023-03-15T05:57:55.558Z,98065.78
2023-03-15T05:59:45.450Z,98063.28
2023-03-15T06:01:39.897Z,98067.09
2023-03-15T06:03:22.974Z,98061.84
2023-03-15T06:05:00.655Z,98065.13
2023-03-15T06:06:33.789Z,98073.41
2023-03-15T06:08:07.310Z,98079.88
2023-03-15T06:09:41.218Z,98074.31
2023-03-15T06:11:12.940Z,98075.06
2023-03-15T06:12:45.090Z,98070.00
2023-03-15T06:14:16.912Z,98076.16
2023-03-15T06:15:56.828Z,98080.69
2023-03-15T06:17:28.817Z,98087.19
2023-03-15T06:19:00.496Z,98089.78
2023-03-15T06:20:32.554Z,98081.13
2023-03-15T06:22:10.218Z,98071.59
2023-03-15T06:23:48.903Z,98077.16
2023-03-15T06:25:20.476Z,98080.66
2023-03-15T06:26:54.760Z,98091.03
2023-03-15T06:28:26.774Z,98092.78
2023-03-15T06:30:01.369Z,98095.19
2023-03-15T06:31:33.865Z,98095.31
2023-03-15T06:33:11.891Z,98097.06
2023-03-15T06:34:43.786Z,98100.47
2023-03-15T06:36:17.596Z,98103.38
2023-03-15T06:37:49.302Z,98104.63
2023-03-15T06:39:21.184Z,98108.44
2023-03-15T06:40:52.966Z,98106.91
2023-03-15T06:42:24.598Z,98105.97
2023-03-15T06:43:56.221Z,98114.53
2023-03-15T06:45:28.016Z,98109.19
2023-03-15T06:47:02.871Z,98107.78
2023-03-15T06:48:35.016Z,98107.47
2023-03-15T06:50:07.465Z,98114.28
2023-03-15T06:51:39.335Z,98105.13
2023-03-15T06:53:11.240Z,98112.63
2023-03-15T06:54:44.311Z,98104.59
2023-03-15T06:56:16.113Z,98104.94
2023-03-15T06:57:47.765Z,98111.94
2023-03-15T06:59:19.342Z,98118.53
2023-03-15T07:00:51.090Z,98116.34
2023-03-15T07:02:23.044Z,98122.84
2023-03-15T07:03:54.664Z,98125.09
2023-03-15T07:05:26.436Z,98119.03
2023-03-15T07:06:58.040Z,98119.72
2023-03-15T07:08:29.731Z,98117.53
2023-03-15T07:10:01.353Z,98123.63
2023-03-15T07:11:33.427Z,98122.03
2023-03-15T07:13:06.860Z,98126.22
2023-03-15T07:14:38.506Z,98124.03
2023-03-15T07:16:10.260Z,98131.47
2023-03-15T07:17:42.099Z,98123.50
2023-03-15T07:19:13.748Z,98133.53
2023-03-15T07:20:45.357Z,98131.94
2023-03-15T07:22:16.950Z,98129.66
2023-03-15T07:23:48.560Z,98129.16
2023-03-15T07:25:23.999Z,98127.19
2023-03-15T07:26:56.660Z,98130.88
2023-03-15T07:28:28.641Z,98130.56
2023-03-15T07:30:01.089Z,98124.28
2023-03-15T07:31:32.657Z,98124.19
2023-03-15T07:33:04.438Z,98122.34
2023-03-15T07:34:36.109Z,98128.56
2023-03-15T07:36:08.440Z,98132.19
2023-03-15T07:37:44.313Z,98130.28
2023-03-15T07:39:16.328Z,98128.22
2023-03-15T07:40:47.947Z,98143.53
2023-03-15T07:42:19.618Z,98136.28
2023-03-15T07:43:58.389Z,98130.94
2023-03-15T07:45:30.314Z,98133.91
2023-03-15T07:47:01.937Z,98138.78
2023-03-15T07:48:33.670Z,98136.22
2023-03-15T07:50:06.600Z,98131.03
2023-03-15T07:51:38.232Z,98143.75
2023-03-15T07:53:09.870Z,98138.59
2023-03-15T07:54:41.470Z,98138.16
2023-03-15T07:56:13.125Z,98136.50
2023-03-15T07:57:44.728Z,98140.97
2023-03-15T07:59:16.304Z,98138.38
2023-03-15T08:00:48.251Z,98134.69
2023-03-15T08:02:20.062Z,98140.34
2023-03-15T08:03:51.904Z,98144.41
2023-03-15T08:05:24.434Z,98140.19
2023-03-15T08:06:56.580Z,98136.75
2023-03-15T08:08:28.392Z,98137.50
2023-03-15T08:10:00.128Z,98140.91
2023-03-15T08:11:32.973Z,98128.09
2023-03-15T08:13:04.673Z,98139.44
2023-03-15T08:14:37.232Z,98137.72
2023-03-15T08:16:08.958Z,98134.13
2023-03-15T08:17:41.609Z,98129.19
2023-03-15T08:19:13.241Z,98128.06
2023-03-15T08:20:44.859Z,98128.84
2023-03-15T08:22:16.562Z,98126.50
2023-03-15T08:23:48.201Z,98125.13
2023-03-15T08:25:23.489Z,98127.59
2023-03-15T08:26:55.096Z,98123.50
2023-03-15T08:28:26.724Z,98133.97
2023-03-15T08:29:58.433Z,98127.97
2023-03-15T08:31:31.123Z,98121.84
2023-03-15T08:33:03.762Z,98130.78
2023-03-15T08:34:35.630Z,98123.41
2023-03-15T08:36:07.464Z,98118.97
2023-03-15T08:37:39.730Z,98115.22
2023-03-15T08:39:11.535Z,98123.66
2023-03-15T08:40:43.197Z,98115.25
2023-03-15T08:42:14.971Z,98113.78
2023-03-15T08:43:46.638Z,98112.91
2023-03-15T08:45:19.060Z,98109.41
2023-03-15T08:46:50.880Z,98122.44
2023-03-15T08:48:22.653Z,98111.50
2023-03-15T08:49:54.322Z,98122.25
2023-03-15T08:51:26.619Z,98125.53
2023-03-15T08:52:58.374Z,98126.63
2023-03-15T08:54:30.038Z,98113.00
2023-03-15T08:56:01.965Z,98110.06
2023-03-15T08:57:33.647Z,98118.31
2023-03-15T08:59:05.643Z,98116.22
2023-03-15T09:00:37.747Z,98112.78
2023-03-15T09:02:11.960Z,98116.47
2023-03-15T09:03:44.137Z,98130.72
2023-03-15T09:05:17.019Z,98129.00
2023-03-15T09:06:48.728Z,98126.03
2023-03-15T09:08:21.507Z,98122.41
2023-03-15T09:09:54.454Z,98123.16
2023-03-15T09:11:26.111Z,98129.22
2023-03-15T09:12:57.884Z,98124.97
2023-03-15T09:14:29.660Z,98127.25
2023-03-15T09:16:01.326Z,98134.44
2023-03-15T09:17:33.059Z,98137.25
2023-03-15T09:19:05.200Z,98140.28
2023-03-15T09:20:39.612Z,98141.88
2023-03-15T09:22:17.117Z,98154.03
2023-03-15T09:23:55.366Z,98155.09
2023-03-15T09:25:27.557Z,98157.53
2023-03-15T09:26:59.255Z,98164.88
2023-03-15T09:28:30.948Z,98157.28
2023-03-15T09:30:03.712Z,98159.88
2023-03-15T09:31:35.703Z,98163.88
2023-03-15T09:33:07.858Z,98148.00
2023-03-15T09:34:42.279Z,98162.78
2023-03-15T09:36:14.036Z,98171.28
2023-03-15T09:37:47.187Z,98175.53
2023-03-15T09:39:22.445Z,98163.50
2023-03-15T09:41:00.290Z,98174.56
2023-03-15T09:42:48.826Z,98176.75
2023-03-15T09:44:26.160Z,98185.09
2023-03-15T09:46:03.919Z,98185.22
2023-03-15T09:47:48.168Z,98186.81
2023-03-15T09:49:47.083Z,98184.50
2023-03-15T09:51:36.738Z,98187.72
2023-03-15T09:53:18.998Z,98181.34
2023-03-15T09:54:54.653Z,98182.94
2023-03-15T09:56:45.717Z,98175.16
2023-03-15T09:58:23.905Z,98172.84
2023-03-15T09:59:56.825Z,98182.59
2023-03-15T10:01:35.087Z,98179.56
2023-03-15T10:03:33.185Z,98182.16
2023-03-15T10:05:13.799Z,98181.47
2023-03-15T10:06:52.824Z,98183.69
2023-03-15T10:08:25.057Z,98179.91
2023-03-15T10:09:59.025Z,98172.50
2023-03-15T10:11:47.294Z,98174.66
2023-03-15T10:13:30.412Z,98177.38
2023-03-15T10:15:21.819Z,98177.25
2023-03-15T10:16:53.382Z,98172.66
2023-03-15T10:19:02.492Z,98167.25
2023-03-15T10:20:41.456Z,98168.13
2023-03-15T10:22:13.010Z,98172.50
2023-03-15T10:23:54.103Z,98177.56
2023-03-15T10:25:30.846Z,98162.03
2023-03-15T10:27:14.285Z,98155.31
2023-03-15T10:28:46.211Z,98146.53
2023-03-15T10:30:21.580Z,98148.25
2023-03-15T10:31:54.824Z,98148.38
2023-03-15T10:33:29.603Z,98146.00
2023-03-15T10:35:01.728Z,98140.91
2023-03-15T10:36:33.519Z,98142.88
2023-03-15T10:38:20.935Z,98141.16
2023-03-15T10:39:59.000Z,98133.09
2023-03-15T10:41:37.491Z,98133.75
2023-03-15T10:43:16.991Z,98141.69
2023-03-15T10:44:48.649Z,98135.00
2023-03-15T10:46:24.438Z,98139.00
2023-03-15T10:48:00.735Z,98138.09
2023-03-15T10:49:41.371Z,98148.72
2023-03-15T10:51:18.602Z,98141.66
2023-03-15T10:52:51.508Z,98145.94
2023-03-15T10:54:25.019Z,98150.25
2023-03-15T10:56:04.031Z,98152.34
2023-03-15T10:57:39.789Z,98151.91
2023-03-15T10:59:18.415Z,98160.34
2023-03-15T11:00:52.660Z,98157.75
2023-03-15T11:02:25.709Z,98156.06
2023-03-15T11:04:33.768Z,98167.53
2023-03-15T11:06:21.523Z,98143.72
2023-03-15T11:07:58.787Z,98166.53
2023-03-15T11:09:45.704Z,98169.66
2023-03-15T11:11:18.812Z,98167.56
2023-03-15T11:12:50.499Z,98141.78
2023-03-15T11:14:22.098Z,98129.25
2023-03-15T11:16:04.566Z,98135.91
2023-03-15T11:17:42.845Z,98139.34
2023-03-15T11:19:21.134Z,98136.63
2023-03-15T11:20:55.108Z,98146.63
2023-03-15T11:22:27.079Z,98137.25
2023-03-15T11:24:01.058Z,98128.09
2023-03-15T11:25:34.258Z,98129.34
2023-03-15T11:27:17.772Z,98125.00
2023-03-15T11:28:59.703Z,98131.44
2023-03-15T11:30:32.288Z,98140.16
2023-03-15T11:32:13.414Z,98131.53
2023-03-15T11:34:03.387Z,98143.38
2023-03-15T11:35:49.715Z,98147.81
2023-03-15T11:37:27.189Z,98132.56
2023-03-15T11:39:03.098Z,98133.63
2023-03-15T11:40:42.954Z,98128.53
2023-03-15T11:42:38.889Z,98116.44
2023-03-15T11:44:33.441Z,98115.09
2023-03-15T11:46:10.932Z,98125.31
2023-03-15T11:48:01.807Z,98115.44
2023-03-15T11:49:40.661Z,98123.25
2023-03-15T11:51:13.894Z,98128.28
2023-03-15T11:52:49.873Z,98125.47
2023-03-15T11:54:22.760Z,98123.75
2023-03-15T11:55:54.816Z,98121.00
2023-03-15T11:57:29.449Z,98125.25
2023-03-15T11:59:02.110Z,98125.59
2023-03-15T12:00:36.630Z,98123.22
2023-03-15T12:02:11.280Z,98128.53
2023-03-15T12:03:44.782Z,98128.66
2023-03-15T12:05:44.466Z,98127.16
2023-03-15T12:07:18.991Z,98127.81
2023-03-15T12:08:54.874Z,98130.16
2023-03-15T12:10:33.702Z,98132.97
2023-03-15T12:12:25.381Z,98127.03
2023-03-15T12:13:56.986Z,98122.94
2023-03-15T12:15:28.561Z,98135.91
2023-03-15T12:17:22.096Z,98122.00
2023-03-15T12:18:58.636Z,98125.78
2023-03-15T12:20:36.694Z,98119.38
2023-03-15T12:22:17.432Z,98129.53
2023-03-15T12:24:01.655Z,98117.56
2023-03-15T12:25:55.167Z,98120.84
2023-03-15T12:27:28.689Z,98121.38
2023-03-15T12:29:00.743Z,98125.94
2023-03-15T12:30:38.453Z,98120.72
2023-03-15T12:32:18.027Z,98123.31
2023-03-15T12:33:58.379Z,98124.66
2023-03-15T12:35:39.889Z,98125.47
2023-03-15T12:37:19.942Z,98125.41
2023-03-15T12:39:00.889Z,98131.44
2023-03-15T12:40:47.516Z,98128.66
2023-03-15T12:42:31.477Z,98133.50
2023-03-15T12:44:22.332Z,98124.47
2023-03-15T12:45:54.157Z,98120.00
2023-03-15T12:47:25.812Z,98124.88
2023-03-15T12:49:33.093Z,98115.34
2023-03-15T12:51:06.370Z,98114.13
2023-03-15T12:52:42.162Z,98113.91
2023-03-15T12:54:15.783Z,98112.72
2023-03-15T12:55:50.062Z,98111.94
2023-03-15T12:57:30.311Z,98113.00
2023-03-15T12:59:31.541Z,98112.22
2023-03-15T13:01:06.298Z,98117.16
2023-03-15T13:02:46.213Z,98120.00
2023-03-15T13:04:18.453Z,98115.72
2023-03-15T13:06:16.044Z,98113.94
2023-03-15T13:08:06.201Z,98120.78
2023-03-15T13:09:56.375Z,98118.25
2023-03-15T13:11:39.602Z,98122.31
2023-03-15T13:13:19.395Z,98122.38
2023-03-15T13:14:59.725Z,98119.16
2023-03-15T13:16:46.381Z,98115.13
2023-03-15T13:18:22.844Z,98115.09
2023-03-15T13:20:38.775Z,98111.59
2023-03-15T13:22:54.880Z,98115.38
2023-03-15T13:24:42.939Z,98105.22
2023-03-15T13:26:40.684Z,98113.84
2023-03-15T13:28:22.505Z,98114.81
2023-03-15T13:29:54.703Z,98114.22
2023-03-15T13:31:31.419Z,98108.53
2023-03-15T13:33:25.074Z,98109.91
2023-03-15T13:34:57.392Z,98113.50
2023-03-15T13:36:47.140Z,98099.22
2023-03-15T13:38:28.033Z,98104.22
2023-03-15T13:40:02.376Z,98108.69
2023-03-15T13:41:39.298Z,98101.06
2023-03-15T13:43:12.189Z,98103.56
2023-03-15T13:44:44.093Z,98108.78
2023-03-15T13:46:23.278Z,98108.22
2023-03-15T13:47:55.247Z,98106.44
2023-03-15T13:49:32.802Z,98104.47
2023-03-15T13:51:06.244Z,98097.28
2023-03-15T13:52:38.151Z,98103.63
2023-03-15T13:54:20.486Z,98111.63
2023-03-15T13:55:54.583Z,98108.34
2023-03-15T13:57:26.907Z,98110.09
2023-03-15T13:58:59.108Z,98106.06
2023-03-15T14:00:34.109Z,98105.97
2023-03-15T14:02:06.437Z,98097.63
2023-03-15T14:03:41.675Z,98102.34
2023-03-15T14:05:27.497Z,98110.38
2023-03-15T14:07:32.961Z,98113.59
2023-03-15T14:09:11.680Z,98119.44
2023-03-15T14:10:43.255Z,98111.69
2023-03-15T14:12:22.868Z,98125.94
2023-03-15T14:13:58.444Z,98123.13
2023-03-15T14:15:30.375Z,98115.09
2023-03-15T14:17:17.662Z,98122.09
2023-03-15T14:18:51.415Z,98127.22
2023-03-15T14:20:29.662Z,98122.81
2023-03-15T14:22:05.313Z,98124.00
2023-03-15T14:23:42.051Z,98111.22
2023-03-15T14:25:22.069Z,98107.91
2023-03-15T14:26:57.466Z,98113.97
2023-03-15T14:28:31.873Z,98113.28
2023-03-15T14:30:04.515Z,98112.88
2023-03-15T14:31:46.576Z,98104.88
2023-03-15T14:33:38.824Z,98110.00
2023-03-15T14:35:28.859Z,98114.56
2023-03-15T14:37:04.455Z,98115.13
2023-03-15T14:38:39.049Z,98112.53
2023-03-15T14:40:21.421Z,98112.53
2023-03-15T14:41:53.249Z,98106.31
2023-03-15T14:43:24.910Z,98110.47
2023-03-15T14:44:56.512Z,98107.44
2023-03-15T14:46:28.525Z,98105.31
2023-03-15T14:48:05.852Z,98108.47
2023-03-15T14:49:37.590Z,98112.25
2023-03-15T14:51:18.404Z,98110.41
2023-03-15T14:52:51.388Z,98112.13
2023-03-15T14:54:23.321Z,98112.25
2023-03-15T14:55:55.076Z,98111.28
2023-03-15T14:57:26.673Z,98108.91
2023-03-15T14:58:58.278Z,98114.66
2023-03-15T15:00:31.267Z,98114.88
2023-03-15T15:02:03.301Z,98117.03
2023-03-15T15:03:41.242Z,98121.22
2023-03-15T15:05:30.929Z,98122.22
2023-03-15T15:07:03.196Z,98123.34
2023-03-15T15:08:39.853Z,98124.47
2023-03-15T15:10:11.809Z,98121.97
2023-03-15T15:11:43.465Z,98119.50
2023-03-15T15:13:21.070Z,98122.91
2023-03-15T15:14:52.808Z,98129.25
2023-03-15T15:16:24.456Z,98134.13
2023-03-15T15:17:56.235Z,98128.34
2023-03-15T15:19:27.898Z,98143.34
2023-03-15T15:21:12.041Z,98144.66
2023-03-15T15:22:43.759Z,98149.59
2023-03-15T15:24:18.505Z,98145.75
2023-03-15T15:25:53.445Z,98148.16
2023-03-15T15:27:26.028Z,98159.69
2023-03-15T15:28:58.175Z,98163.75
2023-03-15T15:30:31.336Z,98163.22
2023-03-15T15:32:02.971Z,98168.97
2023-03-15T15:33:34.941Z,98170.56
2023-03-15T15:35:08.531Z,98159.94
2023-03-15T15:36:43.882Z,98165.44
2023-03-15T15:38:15.647Z,98171.94
2023-03-15T15:39:47.744Z,98181.31
2023-03-15T15:41:24.352Z,98182.31
2023-03-15T15:42:56.609Z,98180.13
2023-03-15T15:44:28.218Z,98183.16
2023-03-15T15:45:59.959Z,98180.97
2023-03-15T15:47:31.664Z,98181.50
2023-03-15T15:49:04.183Z,98185.28
2023-03-15T15:50:36.652Z,98189.25
2023-03-15T15:52:14.594Z,98188.19
2023-03-15T15:53:46.470Z,98194.50
2023-03-15T15:55:21.381Z,98194.94
2023-03-15T15:57:00.561Z,98186.97
2023-03-15T15:58:32.372Z,98197.53
2023-03-15T16:00:08.567Z,98195.75
2023-03-15T16:01:58.859Z,98197.81
2023-03-15T16:03:30.965Z,98194.53
2023-03-15T16:05:02.623Z,98204.69
2023-03-15T16:06:35.233Z,98206.31
2023-03-15T16:08:07.823Z,98207.59
2023-03-15T16:09:40.443Z,98213.34
2023-03-15T16:11:15.577Z,98221.16
2023-03-15T16:12:48.591Z,98218.03
2023-03-15T16:14:20.858Z,98231.59
2023-03-15T16:15:52.836Z,98231.47
2023-03-15T16:17:25.256Z,98226.94
2023-03-15T16:18:57.209Z,98243.38
2023-03-15T16:20:29.734Z,98239.16
2023-03-15T16:22:01.558Z,98237.63
2023-03-15T16:23:34.039Z,98244.50
2023-03-15T16:25:23.886Z,98238.03
2023-03-15T16:27:02.603Z,98242.81
2023-03-15T16:28:34.316Z,98248.84
2023-03-15T16:30:07.337Z,98253.50
2023-03-15T16:31:39.085Z,98242.25
2023-03-15T16:33:16.394Z,98254.16
2023-03-15T16:34:49.345Z,98256.06
2023-03-15T16:36:22.521Z,98260.47
2023-03-15T16:37:56.617Z,98263.22
2023-03-15T16:39:30.269Z,98261.94
2023-03-15T16:41:02.034Z,98266.75
2023-03-15T16:42:33.788Z,98263.75
2023-03-15T16:44:12.890Z,98261.44
2023-03-15T16:45:45.063Z,98265.53
2023-03-15T16:47:17.117Z,98266.06
2023-03-15T16:48:48.787Z,98270.28
2023-03-15T16:50:20.713Z,98261.16
2023-03-15T16:51:53.640Z,98261.72
2023-03-15T16:53:25.353Z,98268.41
2023-03-15T16:54:57.173Z,98269.78
2023-03-15T16:56:33.901Z,98266.22
2023-03-15T16:58:15.913Z,98267.00
2023-03-15T16:59:48.050Z,98263.00
2023-03-15T17:01:20.002Z,98267.22
2023-03-15T17:02:52.788Z,98262.66
2023-03-15T17:04:24.524Z,98268.81
2023-03-15T17:05:56.965Z,98272.91
2023-03-15T17:07:33.210Z,98281.84
2023-03-15T17:09:11.283Z,98283.78
2023-03-15T17:10:43.206Z,98286.31
2023-03-15T17:12:27.209Z,98284.09
2023-03-15T17:13:59.582Z,98286.00
2023-03-15T17:15:31.445Z,98291.00
2023-03-15T17:17:03.095Z,98296.91
2023-03-15T17:18:34.799Z,98288.28
2023-03-15T17:20:10.443Z,98297.25
2023-03-15T17:21:44.194Z,98298.09
2023-03-15T17:23:16.493Z,98300.59
2023-03-15T17:24:49.209Z,98312.03
2023-03-15T17:26:23.590Z,98319.84
2023-03-15T17:27:56.003Z,98320.88
2023-03-15T17:29:27.945Z,98315.13
2023-03-15T17:31:20.383Z,98320.00
2023-03-15T17:32:53.940Z,98321.28
2023-03-15T17:34:26.778Z,98311.41
2023-03-15T17:35:58.600Z,98312.94
2023-03-15T17:37:34.165Z,98317.72
2023-03-15T17:39:07.299Z,98325.53
2023-03-15T17:40:39.072Z,98320.72
2023-03-15T17:42:14.992Z,98317.69
2023-03-15T17:43:48.063Z,98319.38
2023-03-15T17:45:31.582Z,98326.22
2023-03-15T17:47:05.930Z,98317.63
2023-03-15T17:48:38.955Z,98320.25
2023-03-15T17:50:11.491Z,98317.56
2023-03-15T17:51:43.316Z,98324.03
2023-03-15T17:53:17.157Z,98326.38
2023-03-15T17:54:49.037Z,98320.66
2023-03-15T17:56:22.913Z,98328.88
2023-03-15T17:57:55.789Z,98328.66
2023-03-15T17:59:27.689Z,98328.97
2023-03-15T18:01:01.626Z,98329.44
2023-03-15T18:02:33.692Z,98328.16
2023-03-15T18:04:10.702Z,98329.31
2023-03-15T18:05:43.065Z,98335.19
2023-03-15T18:07:14.893Z,98332.34
2023-03-15T18:08:47.760Z,98336.28
2023-03-15T18:10:21.033Z,98339.75
2023-03-15T18:11:52.848Z,98344.13
2023-03-15T18:13:26.477Z,98342.97
2023-03-15T18:15:00.409Z,98345.72
2023-03-15T18:16:32.492Z,98356.06
2023-03-15T18:18:06.403Z,98351.91
2023-03-15T18:19:38.382Z,98351.56
2023-03-15T18:21:14.179Z,98351.09
2023-03-15T18:22:45.953Z,98358.63
2023-03-15T18:24:17.691Z,98357.22
2023-03-15T18:25:49.464Z,98354.84
2023-03-15T18:27:21.252Z,98359.59
2023-03-15T18:28:52.912Z,98352.38
2023-03-15T18:30:27.487Z,98358.50
2023-03-15T18:31:59.167Z,98357.94
2023-03-15T18:33:31.716Z,98361.44
2023-03-15T18:35:04.616Z,98356.28
2023-03-15T18:36:36.431Z,98367.84
2023-03-15T18:38:08.163Z,98363.25
2023-03-15T18:39:40.023Z,98362.78
2023-03-15T18:41:20.329Z,98362.09
2023-03-15T18:42:52.483Z,98364.00
2023-03-15T18:44:24.189Z,98361.50
2023-03-15T18:45:56.210Z,98362.69
2023-03-15T18:47:28.009Z,98360.78
2023-03-15T18:48:59.688Z,98362.56
2023-03-15T18:50:32.129Z,98353.59
2023-03-15T18:52:04.164Z,98357.50
2023-03-15T18:53:35.882Z,98354.19
2023-03-15T18:55:09.396Z,98349.81